»·PEaware :: SWA4227 KPHX-KBUR

SWA4227 :: KPHX-KBUR

FLIGHT INFORMATION

Flight Status: Arrived
Operator:
Southwest Airlines
More flights by this operator :: More flights under this callsign
Pilot: Michael C. (16705)
Aircraft: BOEING 737-800
(B738)
More flights by this aircraft type
Origin: KPHX Phoenix Sky Harbor Intl
United States
Destination: KBUR Bob Hope-Burbank
United States
More flights between these airports :: More routes between these airports
Route: +MAYSA5 JKPOT EED JANNY3
File this flight plan on PilotEdge
Remarks: PBN / A1B1C1D1L1O1S1 NAV / RNVD1E2A1 DOF / 171003 REG / N838NN EET / KZLA0023 RVR / 200 PER / C
Altitude:
(Current/Filed)
36,000ft
Speed:
(Current/Filed)
456kts
Departed: 02-Oct-17 08:05 PM
Arrived: 02-Oct-17 09:18 PM
Distance/Time
Traveled:
320nm/1:12
Distance/Time
To Go:
Arrived

Flight Plot

Page will automatically refresh every two minutes.

Flight plan parsing failed; only flown route is shown


Map Options




Map Legend


Flown Route
Filed Route
Departure Airport
Arrival Airport
Navaid (VOR, NDB)
Fix

Horizontal Profiles

Position Reports

Time Latitude Longitude Heading Altitude Ground
Speed
02-Oct-17 19:49 33.434033 -111.997266 74 1143ft 0kts
02-Oct-17 19:50 33.434033 -111.997266 74 1143ft 0kts
02-Oct-17 19:51 33.434033 -111.997266 74 1143ft 0kts
02-Oct-17 19:52 33.434033 -111.997266 74 1143ft 0kts
02-Oct-17 19:53 33.434033 -111.997266 74 1143ft 0kts
02-Oct-17 19:54 33.434033 -111.997266 74 1143ft 0kts
02-Oct-17 19:55 33.434033 -111.997266 74 1143ft 0kts
02-Oct-17 19:56 33.434033 -111.997266 74 1143ft 0kts
02-Oct-17 19:57 33.434033 -111.997266 74 1143ft 0kts
02-Oct-17 19:58 33.434033 -111.997266 74 1143ft 0kts
02-Oct-17 19:59 33.434094 -111.997766 165 1143ft 2kts
02-Oct-17 20:00 33.434255 -111.997781 180 1143ft 0kts
02-Oct-17 20:01 33.434255 -111.997781 180 1143ft 0kts
02-Oct-17 20:02 33.434251 -111.997781 180 1143ft 0kts
02-Oct-17 20:03 33.433768 -111.997783 179 1143ft 0kts
02-Oct-17 20:04 33.432140 -111.997061 90 1143ft 10kts
02-Oct-17 20:05 33.432039 -111.993746 125 1143ft 4kts
02-Oct-17 20:06 33.431928 -111.993638 152 1143ft 0kts
02-Oct-17 20:07 33.431926 -111.993637 152 1143ft 0kts
02-Oct-17 20:08 33.431016 -111.994458 265 1143ft 17kts
02-Oct-17 20:09 33.431902 -112.035773 271 2760ft 154kts
02-Oct-17 20:10 33.450949 -112.092337 313 4549ft 249kts
02-Oct-17 20:11 33.508358 -112.151565 316 7408ft 287kts
02-Oct-17 20:12 33.583406 -112.191510 341 11152ft 310kts
02-Oct-17 20:13 33.676315 -112.220638 340 13252ft 371kts
02-Oct-17 20:14 33.761211 -112.247865 339 15849ft 383kts
02-Oct-17 20:15 33.883863 -112.287564 339 19085ft 399kts
02-Oct-17 20:16 33.974377 -112.317009 338 21142ft 410kts
02-Oct-17 20:17 34.087888 -112.394163 314 23747ft 404kts
02-Oct-17 20:18 34.160211 -112.467489 314 25364ft 412kts
02-Oct-17 20:19 34.249302 -112.557682 314 27129ft 421kts
02-Oct-17 20:20 34.339993 -112.649137 314 28700ft 429kts
02-Oct-17 20:21 34.432219 -112.742511 314 30190ft 434kts
02-Oct-17 20:22 34.524471 -112.836531 313 31938ft 431kts
02-Oct-17 20:23 34.615803 -112.929784 313 33608ft 428kts
02-Oct-17 20:24 34.686883 -113.037524 277 35027ft 402kts
02-Oct-17 20:25 34.700422 -113.172372 272 35907ft 403kts
02-Oct-17 20:26 34.709080 -113.307073 271 35897ft 398kts
02-Oct-17 20:27 34.716531 -113.442225 271 35882ft 405kts
02-Oct-17 20:28 34.723991 -113.579409 271 35863ft 406kts
02-Oct-17 20:29 34.730960 -113.716481 271 35846ft 407kts
02-Oct-17 20:30 34.737715 -113.854373 271 35828ft 408kts
02-Oct-17 20:31 34.744267 -113.991886 271 35800ft 408kts
02-Oct-17 20:32 34.750863 -114.129944 271 35774ft 408kts
02-Oct-17 20:33 34.757128 -114.267649 271 35757ft 408kts
02-Oct-17 20:34 34.763061 -114.405243 271 35751ft 407kts
02-Oct-17 20:35 34.767729 -114.543018 270 35750ft 407kts
02-Oct-17 20:36 34.770545 -114.680371 270 35750ft 406kts
02-Oct-17 20:37 34.772835 -114.796415 270 35751ft 406kts
02-Oct-17 20:38 34.775650 -114.934220 270 35754ft 406kts
02-Oct-17 20:39 34.778537 -115.071581 270 35760ft 407kts
02-Oct-17 20:40 34.781115 -115.209559 270 35765ft 407kts
02-Oct-17 20:41 34.783482 -115.347168 270 35776ft 408kts
02-Oct-17 20:42 34.785889 -115.485014 270 35788ft 408kts
02-Oct-17 20:43 34.787937 -115.623420 269 35801ft 409kts
02-Oct-17 20:44 34.789678 -115.761225 270 33963ft 408kts
02-Oct-17 20:45 34.792125 -115.899837 271 30541ft 411kts
02-Oct-17 20:46 34.794687 -116.036223 271 27876ft 394kts
02-Oct-17 20:47 34.796846 -116.167135 270 25087ft 385kts
02-Oct-17 20:48 34.796953 -116.295756 267 23689ft 379kts
02-Oct-17 20:49 34.792083 -116.424320 267 23262ft 380kts
02-Oct-17 20:50 34.787535 -116.552602 267 22839ft 377kts
02-Oct-17 20:51 34.775695 -116.679215 263 21981ft 373kts
02-Oct-17 20:52 34.763457 -116.804059 264 21115ft 370kts
02-Oct-17 20:53 34.751133 -116.927304 264 20273ft 365kts
02-Oct-17 20:54 34.738604 -117.049515 264 19452ft 361kts
02-Oct-17 20:55 34.726177 -117.169509 263 18642ft 356kts
02-Oct-17 20:56 34.714120 -117.288929 264 17825ft 353kts
02-Oct-17 20:57 34.701923 -117.407244 264 17151ft 351kts
02-Oct-17 20:58 34.689485 -117.524270 263 16361ft 348kts
02-Oct-17 20:59 34.677083 -117.640817 264 15545ft 346kts
02-Oct-17 21:00 34.664831 -117.756302 263 14736ft 345kts
02-Oct-17 21:01 34.652606 -117.869914 264 13978ft 321kts
02-Oct-17 21:02 34.641742 -117.969927 264 13798ft 278kts
02-Oct-17 21:03 34.631310 -118.063335 262 11888ft 280kts
02-Oct-17 21:04 34.611812 -118.154374 255 10494ft 273kts
02-Oct-17 21:05 34.591548 -118.243614 255 9398ft 275kts
02-Oct-17 21:06 34.571271 -118.333781 255 8298ft 275kts
02-Oct-17 21:07 34.552093 -118.417218 247 8009ft 241kts
02-Oct-17 21:08 34.501758 -118.470168 213 7704ft 247kts
02-Oct-17 21:09 34.450940 -118.524159 232 6435ft 238kts
02-Oct-17 21:10 34.411084 -118.586191 232 5141ft 222kts
02-Oct-17 21:11 34.375735 -118.641212 232 5022ft 209kts
02-Oct-17 21:12 34.339862 -118.696770 232 5019ft 209kts
02-Oct-17 21:13 34.297089 -118.739422 184 4922ft 211kts
02-Oct-17 21:14 34.238467 -118.741897 173 4125ft 202kts
02-Oct-17 21:15 34.205910 -118.695865 122 4002ft 186kts
02-Oct-17 21:16 34.201355 -118.633965 90 4035ft 187kts
02-Oct-17 21:17 34.200643 -118.570823 91 3932ft 190kts
02-Oct-17 21:18 34.199817 -118.509576 92 2963ft 167kts
02-Oct-17 21:19 34.199147 -118.460231 93 2194ft 139kts
02-Oct-17 21:20 34.198519 -118.414121 93 1477ft 136kts
02-Oct-17 21:21 34.197924 -118.368808 93 744ft 129kts
02-Oct-17 21:22 34.197475 -118.355046 169 729ft 0kts
02-Oct-17 21:23 34.196810 -118.354953 162 729ft 0kts
02-Oct-17 21:24 34.196808 -118.354953 162 729ft 0kts
02-Oct-17 21:25 34.196807 -118.354952 162 729ft 0kts

Navigation Log

Ident Type
Flight plan parsing failed, navigation log unavailable